Terminal Aerodrome Forecast
Issued by NWS Upton, NY

Home | Current Version | Previous Version | Text Only | Print | Product List | Glossary On
Versions: 1 2 3 4 5 6 7 8 9 10 11 12 13 14 15 16 17 18 19 20 21 22 23 24 25 26 27 28
488
FTUS41 KOKX 131255 AAA
TAFJFK
TAF AMD
KJFK 131255Z 1313/1418 32022G33KT P6SM BKN080
     FM131700 31025G39KT P6SM SCT060
     FM140500 31022G33KT P6SM SCT200
     FM141200 32017G27KT P6SM SKC
     FM141700 31014G20KT P6SM SKC=

USA.gov is the U.S. government's official web portal to all federal, state and local government web resources and services.